Time;durP1;ratioP1;P1;durP2;ratioP2;P2;SDS_P1;SDS_P2;PMS_P1;PMS_P2;Temp;Humidity;BMP_temperature;BMP_pressure;BME280_temperature;BME280_humidity;BME280_pressure;Samples;Min_cycle;Max_cycle;Signal;HPM_P1;HPM_P2
2022/01/09 00:01:55;;;;;;;0.60;0.60;;;;;;;;;;5011377;28;20266;-59
2022/01/09 00:04:21;;;;;;;0.57;0.57;;;;;;;;;;5011392;28;20229;-60
2022/01/09 00:06:47;;;;;;;0.50;0.50;;;;;;;;;;5063269;22;21017;-67
2022/01/09 00:09:13;;;;;;;0.60;0.60;;;;;;;;;;5065201;28;20478;-66
2022/01/09 00:11:39;;;;;;;0.60;0.60;;;;;;;;;;5036936;28;20924;-66
2022/01/09 00:14:05;;;;;;;0.60;0.60;;;;;;;;;;5029369;28;20175;-66
2022/01/09 00:16:31;;;;;;;0.60;0.60;;;;;;;;;;5029488;28;20421;-66
2022/01/09 00:18:57;;;;;;;0.50;0.50;;;;;;;;;;5030053;28;20960;-65
2022/01/09 00:21:23;;;;;;;0.60;0.60;;;;;;;;;;5030108;28;20451;-66
2022/01/09 00:23:49;;;;;;;0.50;0.50;;;;;;;;;;5029944;28;20595;-65
2022/01/09 00:26:15;;;;;;;0.40;0.40;;;;;;;;;;5030625;28;20197;-66
2022/01/09 00:28:41;;;;;;;0.70;0.70;;;;;;;;;;5031564;28;20500;-65
2022/01/09 00:31:07;;;;;;;0.60;0.60;;;;;;;;;;5031364;28;20745;-65
2022/01/09 00:33:33;;;;;;;0.60;0.60;;;;;;;;;;5030960;28;20407;-65
2022/01/09 00:36:00;;;;;;;0.53;0.53;;;;;;;;;;5031168;28;20445;-66
2022/01/09 00:38:26;;;;;;;0.50;0.50;;;;;;;;;;5031076;28;20406;-66
2022/01/09 00:40:52;;;;;;;0.60;0.60;;;;;;;;;;5032941;28;20696;-65
2022/01/09 00:43:18;;;;;;;0.60;0.60;;;;;;;;;;5034748;28;20542;-65
2022/01/09 00:45:43;;;;;;;0.50;0.50;;;;;;;;;;5034808;28;20805;-66
2022/01/09 00:48:10;;;;;;;0.60;0.60;;;;;;;;;;5034892;28;20442;-66
2022/01/09 00:50:38;;;;;;;0.45;0.45;;;;;;;;;;5034896;28;20411;-66
2022/01/09 00:53:04;;;;;;;0.50;0.50;;;;;;;;;;5034596;28;20171;-66
2022/01/09 00:55:31;;;;;;;0.50;0.50;;;;;;;;;;5034893;28;20561;-66
2022/01/09 00:57:57;;;;;;;0.50;0.50;;;;;;;;;;5034832;28;20179;-64
2022/01/09 01:00:23;;;;;;;0.40;0.40;;;;;;;;;;5034682;28;20176;-66
2022/01/09 01:02:49;;;;;;;0.50;0.50;;;;;;;;;;5034288;28;20207;-65
2022/01/09 01:05:15;;;;;;;0.50;0.50;;;;;;;;;;5034401;28;20401;-65
2022/01/09 01:07:41;;;;;;;0.50;0.50;;;;;;;;;;5034506;28;20173;-65
2022/01/09 01:10:07;;;;;;;0.50;0.50;;;;;;;;;;5034588;28;20179;-64
2022/01/09 01:12:33;;;;;;;0.50;0.50;;;;;;;;;;5034201;28;20609;-65
2022/01/09 01:15:00;;;;;;;0.50;0.50;;;;;;;;;;5034333;28;20217;-63
2022/01/09 01:17:26;;;;;;;0.60;0.60;;;;;;;;;;5034408;28;20206;-65
2022/01/09 01:19:53;;;;;;;0.60;0.60;;;;;;;;;;5034359;28;20256;-65
2022/01/09 01:22:19;;;;;;;0.60;0.60;;;;;;;;;;5034043;28;20278;-66
2022/01/09 01:24:46;;;;;;;0.52;0.52;;;;;;;;;;5034264;28;20643;-65
2022/01/09 01:27:12;;;;;;;0.50;0.50;;;;;;;;;;5034138;28;20194;-66
2022/01/09 01:29:38;;;;;;;0.60;0.60;;;;;;;;;;5034143;28;20254;-65
2022/01/09 01:32:05;;;;;;;0.50;0.50;;;;;;;;;;5034368;28;20495;-66
2022/01/09 01:34:32;;;;;;;0.60;0.60;;;;;;;;;;5033875;28;20411;-65
2022/01/09 01:36:58;;;;;;;0.50;0.50;;;;;;;;;;5034252;28;20618;-67
2022/01/09 01:39:24;;;;;;;0.60;0.60;;;;;;;;;;5033907;28;20200;-66
2022/01/09 01:41:50;;;;;;;0.50;0.50;;;;;;;;;;5033777;28;20460;-66
2022/01/09 01:44:16;;;;;;;0.50;0.50;;;;;;;;;;5033650;28;20487;-65
2022/01/09 01:46:42;;;;;;;0.60;0.60;;;;;;;;;;5033661;28;20421;-64
2022/01/09 01:49:13;;;;;;;0.50;0.50;;;;;;;;;;5033687;28;20193;-66
2022/01/09 01:51:43;;;;;;;0.50;0.50;;;;;;;;;;5032925;28;20874;-64
2022/01/09 01:54:13;;;;;;;0.50;0.50;;;;;;;;;;5033676;28;20174;-67
2022/01/09 01:56:40;;;;;;;0.40;0.40;;;;;;;;;;5033533;28;20567;-66
2022/01/09 01:59:06;;;;;;;0.60;0.60;;;;;;;;;;5033485;28;20177;-66
2022/01/09 02:01:36;;;;;;;0.60;0.60;;;;;;;;;;5033568;28;20219;-66
2022/01/09 02:04:02;;;;;;;0.50;0.50;;;;;;;;;;5033788;28;20193;-67
2022/01/09 02:06:27;;;;;;;0.50;0.50;;;;;;;;;;5053111;28;20206;-67
2022/01/09 02:08:53;;;;;;;0.60;0.60;;;;;;;;;;5053211;28;20175;-66
2022/01/09 02:11:19;;;;;;;0.50;0.50;;;;;;;;;;5052352;28;20407;-65
2022/01/09 02:13:46;;;;;;;0.50;0.50;;;;;;;;;;5052863;28;20768;-65
2022/01/09 02:16:17;;;;;;;0.50;0.50;;;;;;;;;;5053310;28;20269;-64
2022/01/09 02:18:44;;;;;;;0.50;0.50;;;;;;;;;;5053132;28;20665;-66
2022/01/09 02:21:10;;;;;;;0.50;0.50;;;;;;;;;;5052961;28;20179;-65
2022/01/09 02:23:38;;;;;;;0.60;0.60;;;;;;;;;;5051776;28;20545;-66
2022/01/09 02:26:04;;;;;;;0.60;0.60;;;;;;;;;;5052219;28;20733;-67
2022/01/09 02:28:30;;;;;;;0.50;0.50;;;;;;;;;;5051975;28;20185;-67
2022/01/09 02:30:56;;;;;;;0.50;0.50;;;;;;;;;;5052049;28;20253;-65
2022/01/09 02:33:22;;;;;;;0.60;0.60;;;;;;;;;;5052658;28;20412;-65
2022/01/09 02:35:50;;;;;;;0.50;0.50;;;;;;;;;;5052682;28;20456;-66
2022/01/09 02:38:16;;;;;;;0.50;0.50;;;;;;;;;;5052670;28;20403;-65
2022/01/09 02:40:42;;;;;;;0.50;0.50;;;;;;;;;;5052648;28;20247;-66
2022/01/09 02:43:08;;;;;;;0.50;0.50;;;;;;;;;;5051826;28;20292;-65
2022/01/09 02:45:34;;;;;;;0.50;0.50;;;;;;;;;;5052509;28;20503;-66
2022/01/09 02:48:02;;;;;;;0.50;0.50;;;;;;;;;;5052437;28;20429;-66
2022/01/09 02:52:58;;;;;;;0.50;0.50;;;;;;;;;;5052108;28;20233;-65
2022/01/09 02:55:25;;;;;;;0.50;0.50;;;;;;;;;;5052328;28;20187;-66
2022/01/09 02:57:52;;;;;;;0.60;0.60;;;;;;;;;;5052288;28;20592;-66
2022/01/09 03:00:20;;;;;;;0.70;0.70;;;;;;;;;;5052239;28;20261;-66
2022/01/09 03:02:46;;;;;;;0.47;0.47;;;;;;;;;;5051899;28;20210;-66
2022/01/09 03:05:12;;;;;;;0.70;0.70;;;;;;;;;;5052093;28;20223;-64
2022/01/09 03:07:38;;;;;;;0.50;0.50;;;;;;;;;;5051966;28;20414;-67
2022/01/09 03:10:05;;;;;;;0.50;0.50;;;;;;;;;;5052129;28;20226;-66
2022/01/09 03:12:31;;;;;;;0.50;0.50;;;;;;;;;;5051930;28;20226;-65
2022/01/09 03:14:57;;;;;;;0.50;0.50;;;;;;;;;;5052086;28;20169;-66
2022/01/09 03:17:23;;;;;;;0.50;0.50;;;;;;;;;;5051884;28;20192;-66
2022/01/09 03:19:49;;;;;;;0.40;0.40;;;;;;;;;;5052025;28;20186;-65
2022/01/09 03:22:15;;;;;;;0.60;0.60;;;;;;;;;;5051787;28;20201;-65
2022/01/09 03:24:42;;;;;;;0.40;0.40;;;;;;;;;;5051631;28;20419;-65
2022/01/09 03:27:08;;;;;;;0.40;0.40;;;;;;;;;;5051750;28;20435;-66
2022/01/09 03:29:34;;;;;;;0.60;0.60;;;;;;;;;;5051828;28;20320;-66
2022/01/09 03:32:00;;;;;;;0.50;0.50;;;;;;;;;;5051805;28;20568;-66
2022/01/09 03:34:26;;;;;;;0.60;0.60;;;;;;;;;;5051470;28;20180;-65
2022/01/09 03:36:52;;;;;;;0.50;0.50;;;;;;;;;;5051369;28;20824;-65
2022/01/09 03:39:18;;;;;;;0.50;0.50;;;;;;;;;;5051689;28;20442;-66
2022/01/09 03:41:44;;;;;;;0.50;0.50;;;;;;;;;;5051610;28;20609;-65
2022/01/09 03:44:10;;;;;;;0.60;0.60;;;;;;;;;;5051385;28;20477;-66
2022/01/09 03:46:36;;;;;;;0.40;0.40;;;;;;;;;;5051486;28;20435;-66
2022/01/09 03:49:02;;;;;;;0.50;0.50;;;;;;;;;;5051551;28;20411;-66
2022/01/09 03:51:32;;;;;;;0.60;0.60;;;;;;;;;;5051410;28;20410;-65
2022/01/09 03:53:59;;;;;;;0.45;0.45;;;;;;;;;;5051391;28;20266;-66
2022/01/09 03:56:25;;;;;;;0.50;0.50;;;;;;;;;;5051388;28;20626;-66
2022/01/09 03:58:51;;;;;;;0.60;0.60;;;;;;;;;;5051516;28;20240;-66
2022/01/09 04:01:17;;;;;;;0.60;0.60;;;;;;;;;;5051403;28;20647;-65
2022/01/09 04:03:43;;;;;;;0.60;0.60;;;;;;;;;;5051132;28;20403;-65
2022/01/09 04:06:09;;;;;;;0.50;0.50;;;;;;;;;;5051406;28;20563;-66
2022/01/09 04:08:35;;;;;;;0.50;0.50;;;;;;;;;;5051424;28;20182;-65
2022/01/09 04:11:02;;;;;;;0.60;0.60;;;;;;;;;;5051267;28;20182;-66
2022/01/09 04:13:28;;;;;;;0.60;0.60;;;;;;;;;;5051081;28;20495;-65
2022/01/09 04:15:54;;;;;;;0.50;0.50;;;;;;;;;;5054371;28;20801;-66
2022/01/09 04:18:21;;;;;;;0.50;0.50;;;;;;;;;;5055419;28;20542;-65
2022/01/09 04:20:48;;;;;;;0.50;0.50;;;;;;;;;;5055585;28;20186;-65
2022/01/09 04:23:14;;;;;;;0.60;0.60;;;;;;;;;;5055248;28;20211;-66
2022/01/09 04:25:40;;;;;;;0.50;0.50;;;;;;;;;;5055196;28;20380;-66
2022/01/09 04:28:06;;;;;;;0.50;0.50;;;;;;;;;;5055249;28;20249;-66
2022/01/09 04:30:32;;;;;;;0.50;0.50;;;;;;;;;;5055332;28;20174;-66
2022/01/09 04:32:58;;;;;;;0.57;0.57;;;;;;;;;;5054852;28;20184;-66
2022/01/09 04:35:24;;;;;;;0.60;0.60;;;;;;;;;;5055059;28;20205;-66
2022/01/09 04:37:51;;;;;;;0.50;0.50;;;;;;;;;;5055040;28;20417;-66
2022/01/09 04:40:19;;;;;;;0.60;0.60;;;;;;;;;;5055198;28;20205;-66
2022/01/09 04:42:48;;;;;;;0.50;0.50;;;;;;;;;;5055196;28;20281;-65
2022/01/09 04:45:16;;;;;;;0.50;0.50;;;;;;;;;;5055179;28;20225;-65
2022/01/09 04:47:45;;;;;;;0.60;0.60;;;;;;;;;;5055236;28;20186;-65
2022/01/09 04:50:16;;;;;;;0.50;0.50;;;;;;;;;;5055025;28;20808;-66
2022/01/09 04:52:43;;;;;;;0.60;0.60;;;;;;;;;;5054638;28;20207;-66
2022/01/09 04:55:09;;;;;;;0.60;0.60;;;;;;;;;;5036857;28;20186;-66
2022/01/09 04:57:35;;;;;;;0.50;0.50;;;;;;;;;;5054748;28;20260;-64
2022/01/09 05:00:01;;;;;;;0.60;0.60;;;;;;;;;;5054671;28;20213;-66
2022/01/09 05:02:27;;;;;;;0.60;0.60;;;;;;;;;;5054374;28;20198;-61
2022/01/09 05:04:53;;;;;;;0.50;0.50;;;;;;;;;;5054607;28;20261;-66
2022/01/09 05:07:19;;;;;;;0.60;0.60;;;;;;;;;;5054444;28;20285;-66
2022/01/09 05:09:45;;;;;;;0.60;0.60;;;;;;;;;;5054703;28;20417;-65
2022/01/09 05:12:11;;;;;;;0.50;0.50;;;;;;;;;;5054508;28;20406;-65
2022/01/09 05:14:37;;;;;;;0.50;0.50;;;;;;;;;;5054122;28;20470;-66
2022/01/09 05:17:03;;;;;;;0.60;0.60;;;;;;;;;;5054282;28;20435;-66
2022/01/09 05:19:31;;;;;;;0.60;0.60;;;;;;;;;;5054384;28;20403;-66
2022/01/09 05:21:57;;;;;;;0.52;0.52;;;;;;;;;;5054147;28;20196;-66
2022/01/09 05:24:24;;;;;;;0.60;0.60;;;;;;;;;;5054004;28;20169;-66
2022/01/09 05:26:50;;;;;;;0.50;0.50;;;;;;;;;;5052936;28;20198;-65
2022/01/09 05:29:15;;;;;;;0.60;0.60;;;;;;;;;;5054097;28;20514;-66
2022/01/09 05:31:43;;;;;;;0.60;0.60;;;;;;;;;;5054094;28;20175;-66
2022/01/09 05:34:10;;;;;;;0.50;0.50;;;;;;;;;;5053825;28;20611;-66
2022/01/09 05:36:36;;;;;;;0.50;0.50;;;;;;;;;;5053907;28;20198;-66
2022/01/09 05:39:02;;;;;;;0.50;0.50;;;;;;;;;;5053853;28;20185;-66
2022/01/09 05:41:28;;;;;;;0.50;0.50;;;;;;;;;;5053801;28;20410;-66
2022/01/09 05:43:54;;;;;;;0.50;0.50;;;;;;;;;;5053608;28;20172;-66
2022/01/09 05:46:20;;;;;;;0.50;0.50;;;;;;;;;;5053782;28;20190;-67
2022/01/09 05:48:46;;;;;;;0.50;0.50;;;;;;;;;;5053858;28;20172;-66
2022/01/09 05:51:12;;;;;;;0.50;0.50;;;;;;;;;;5053736;28;20445;-66
2022/01/09 05:53:38;;;;;;;0.70;0.70;;;;;;;;;;5053482;28;20412;-65
2022/01/09 05:56:04;;;;;;;0.53;0.53;;;;;;;;;;5053534;28;20436;-66
2022/01/09 05:58:31;;;;;;;0.50;0.50;;;;;;;;;;5053540;28;20411;-66
2022/01/09 06:00:57;;;;;;;0.60;0.60;;;;;;;;;;5053616;28;20659;-66
2022/01/09 06:03:23;;;;;;;0.60;0.60;;;;;;;;;;5053220;28;20199;-66
2022/01/09 06:05:49;;;;;;;0.50;0.50;;;;;;;;;;5068791;22;20202;-61
2022/01/09 06:08:15;;;;;;;0.50;0.50;;;;;;;;;;5031124;28;20246;-61
2022/01/09 06:10:41;;;;;;;0.50;0.50;;;;;;;;;;5032368;28;20551;-62
2022/01/09 06:13:06;;;;;;;0.50;0.50;;;;;;;;;;5032048;28;20483;-61
2022/01/09 06:15:33;;;;;;;0.50;0.50;;;;;;;;;;5031922;28;20393;-62
2022/01/09 06:17:58;;;;;;;0.50;0.50;;;;;;;;;;5031863;28;20510;-62
2022/01/09 06:20:24;;;;;;;0.50;0.50;;;;;;;;;;5031845;28;20586;-60
2022/01/09 06:22:50;;;;;;;0.50;0.50;;;;;;;;;;5014309;28;20472;-62
2022/01/09 06:25:16;;;;;;;0.50;0.50;;;;;;;;;;5032969;28;20405;-62
2022/01/09 06:27:42;;;;;;;0.60;0.60;;;;;;;;;;5032867;28;20452;-61
2022/01/09 06:30:09;;;;;;;0.50;0.50;;;;;;;;;;5033050;28;20398;-60
2022/01/09 06:32:35;;;;;;;0.50;0.50;;;;;;;;;;5032670;28;20178;-61
2022/01/09 06:35:01;;;;;;;0.60;0.60;;;;;;;;;;5032770;28;20283;-61
2022/01/09 06:37:27;;;;;;;0.57;0.57;;;;;;;;;;5032317;28;20198;-61
2022/01/09 06:39:53;;;;;;;0.50;0.50;;;;;;;;;;5032996;28;20703;-61
2022/01/09 06:42:19;;;;;;;0.60;0.60;;;;;;;;;;5014825;28;20210;-62
2022/01/09 06:44:45;;;;;;;0.50;0.50;;;;;;;;;;5032477;28;20453;-62
2022/01/09 06:47:11;;;;;;;0.60;0.60;;;;;;;;;;5032485;28;20425;-62
2022/01/09 06:49:37;;;;;;;0.50;0.50;;;;;;;;;;5032466;28;20400;-62
2022/01/09 06:52:04;;;;;;;0.40;0.40;;;;;;;;;;5032419;28;20409;-62
2022/01/09 06:54:30;;;;;;;0.50;0.50;;;;;;;;;;5032256;28;20175;-62
2022/01/09 06:56:56;;;;;;;0.50;0.50;;;;;;;;;;5032297;28;20703;-62
2022/01/09 06:59:22;;;;;;;0.50;0.50;;;;;;;;;;5032344;28;20178;-62
2022/01/09 07:01:48;;;;;;;0.50;0.50;;;;;;;;;;5032315;28;20201;-62
2022/01/09 07:04:14;;;;;;;0.40;0.40;;;;;;;;;;5031942;28;20461;-61
2022/01/09 07:06:40;;;;;;;0.50;0.50;;;;;;;;;;5031993;28;20206;-61
2022/01/09 07:09:06;;;;;;;0.60;0.60;;;;;;;;;;5032196;28;21227;-62
2022/01/09 07:11:32;;;;;;;0.40;0.40;;;;;;;;;;5032186;28;20542;-62
2022/01/09 07:13:58;;;;;;;0.60;0.60;;;;;;;;;;5031945;28;20219;-62
2022/01/09 07:16:23;;;;;;;0.50;0.50;;;;;;;;;;5032155;28;20434;-62
2022/01/09 07:18:49;;;;;;;0.60;0.60;;;;;;;;;;5014292;28;20422;-62
2022/01/09 07:21:15;;;;;;;0.50;0.50;;;;;;;;;;5031939;28;20414;-62
2022/01/09 07:23:41;;;;;;;0.50;0.50;;;;;;;;;;5031900;28;20445;-62
2022/01/09 07:26:07;;;;;;;0.60;0.60;;;;;;;;;;5032031;28;20278;-61
2022/01/09 07:28:33;;;;;;;0.50;0.50;;;;;;;;;;5031997;28;20404;-62
2022/01/09 07:30:59;;;;;;;0.50;0.50;;;;;;;;;;5031929;28;20491;-62
2022/01/09 07:33:25;;;;;;;0.50;0.50;;;;;;;;;;5031672;28;20443;-62
2022/01/09 07:35:51;;;;;;;0.50;0.50;;;;;;;;;;5014291;28;20418;-61
2022/01/09 07:38:17;;;;;;;0.50;0.50;;;;;;;;;;5031696;28;20918;-62
2022/01/09 07:40:43;;;;;;;0.50;0.50;;;;;;;;;;5031759;28;20899;-62
2022/01/09 07:43:09;;;;;;;0.50;0.50;;;;;;;;;;5031429;28;20999;-62
2022/01/09 07:45:35;;;;;;;0.50;0.50;;;;;;;;;;5031269;28;20416;-61
2022/01/09 07:48:02;;;;;;;0.40;0.40;;;;;;;;;;5031610;28;20189;-61
2022/01/09 07:50:28;;;;;;;0.50;0.50;;;;;;;;;;5030986;28;20179;-62
2022/01/09 07:52:55;;;;;;;0.50;0.50;;;;;;;;;;5031561;28;20200;-62
2022/01/09 07:55:22;;;;;;;0.60;0.60;;;;;;;;;;5031713;28;20203;-62
2022/01/09 07:57:48;;;;;;;0.50;0.50;;;;;;;;;;5013799;28;20302;-62
2022/01/09 08:00:17;;;;;;;0.50;0.50;;;;;;;;;;5013885;28;20187;-62
2022/01/09 08:02:43;;;;;;;0.60;0.60;;;;;;;;;;5031272;28;20220;-61
2022/01/09 08:05:10;;;;;;;0.50;0.50;;;;;;;;;;5031692;28;20652;-61
2022/01/09 08:07:36;;;;;;;0.55;0.55;;;;;;;;;;5030776;28;20209;-62
2022/01/09 08:10:03;;;;;;;0.50;0.50;;;;;;;;;;5031176;28;20166;-61
2022/01/09 08:12:29;;;;;;;0.60;0.60;;;;;;;;;;5029551;28;20271;-60
2022/01/09 08:14:55;;;;;;;0.60;0.60;;;;;;;;;;5030859;28;20669;-61
2022/01/09 08:17:21;;;;;;;0.60;0.60;;;;;;;;;;5030531;28;20471;-61
2022/01/09 08:19:46;;;;;;;0.63;0.63;;;;;;;;;;5030386;28;20425;-61
2022/01/09 08:22:12;;;;;;;0.43;0.43;;;;;;;;;;5030685;28;20453;-62
2022/01/09 08:24:41;;;;;;;0.60;0.60;;;;;;;;;;5030686;28;20438;-62
2022/01/09 08:27:08;;;;;;;0.50;0.50;;;;;;;;;;5030746;28;20453;-62
2022/01/09 08:29:34;;;;;;;0.50;0.50;;;;;;;;;;5030303;28;20181;-61
2022/01/09 08:32:01;;;;;;;0.60;0.60;;;;;;;;;;5030323;28;20184;-61
2022/01/09 08:34:27;;;;;;;0.60;0.60;;;;;;;;;;5030938;28;20575;-60
2022/01/09 08:36:53;;;;;;;0.60;0.60;;;;;;;;;;5013423;28;20196;-61
2022/01/09 08:39:19;;;;;;;0.57;0.57;;;;;;;;;;5029307;28;20428;-61
2022/01/09 08:41:44;;;;;;;0.57;0.57;;;;;;;;;;5024123;28;20582;-62
2022/01/09 08:44:10;;;;;;;0.60;0.60;;;;;;;;;;5039395;28;20264;-62
2022/01/09 08:46:37;;;;;;;0.60;0.60;;;;;;;;;;5038059;28;20480;-62
2022/01/09 08:49:04;;;;;;;0.60;0.60;;;;;;;;;;5033841;28;20418;-62
2022/01/09 08:51:30;;;;;;;0.50;0.50;;;;;;;;;;5033575;28;20567;-62
2022/01/09 08:53:56;;;;;;;0.60;0.60;;;;;;;;;;5035717;28;20600;-62
2022/01/09 08:56:23;;;;;;;0.70;0.70;;;;;;;;;;5030380;28;20206;-62
2022/01/09 08:58:49;;;;;;;0.50;0.50;;;;;;;;;;5030376;28;20252;-62
2022/01/09 09:01:16;;;;;;;0.50;0.50;;;;;;;;;;5032140;28;20269;-62
2022/01/09 09:03:42;;;;;;;0.63;0.63;;;;;;;;;;5033109;28;20198;-61
2022/01/09 09:06:10;;;;;;;0.50;0.50;;;;;;;;;;5015682;28;20201;-62
2022/01/09 09:08:36;;;;;;;0.60;0.60;;;;;;;;;;5031451;28;20476;-62
2022/01/09 09:11:02;;;;;;;0.50;0.50;;;;;;;;;;5034523;28;20643;-62
2022/01/09 09:13:28;;;;;;;0.50;0.50;;;;;;;;;;5032939;28;20425;-62
2022/01/09 09:15:54;;;;;;;0.60;0.60;;;;;;;;;;5033790;28;20454;-62
2022/01/09 09:18:19;;;;;;;0.70;0.70;;;;;;;;;;5034118;28;20432;-62
2022/01/09 09:20:45;;;;;;;0.50;0.50;;;;;;;;;;5034066;28;21029;-62
2022/01/09 09:23:12;;;;;;;0.50;0.50;;;;;;;;;;5033620;28;20470;-62
2022/01/09 09:25:38;;;;;;;0.50;0.50;;;;;;;;;;5015825;28;20951;-62
2022/01/09 09:28:04;;;;;;;0.50;0.50;;;;;;;;;;5030735;28;20174;-62
2022/01/09 09:30:30;;;;;;;0.60;0.60;;;;;;;;;;5034013;28;20185;-62
2022/01/09 09:32:56;;;;;;;0.47;0.47;;;;;;;;;;5033796;28;20186;-63
2022/01/09 09:35:22;;;;;;;0.60;0.60;;;;;;;;;;5034014;28;20440;-61
2022/01/09 09:37:48;;;;;;;0.50;0.50;;;;;;;;;;5033117;28;20509;-62
2022/01/09 09:40:14;;;;;;;0.60;0.60;;;;;;;;;;5033590;28;20191;-62
2022/01/09 09:42:40;;;;;;;0.60;0.60;;;;;;;;;;5033247;28;20491;-62
2022/01/09 09:45:07;;;;;;;0.55;0.55;;;;;;;;;;5033708;28;20504;-61
2022/01/09 09:47:33;;;;;;;0.60;0.60;;;;;;;;;;5032940;28;20234;-62
2022/01/09 09:49:59;;;;;;;0.50;0.50;;;;;;;;;;5013607;28;20201;-62
2022/01/09 09:52:25;;;;;;;0.50;0.50;;;;;;;;;;5033413;28;20221;-61
2022/01/09 09:54:52;;;;;;;0.50;0.50;;;;;;;;;;5033358;28;20189;-61
2022/01/09 09:57:18;;;;;;;0.60;0.60;;;;;;;;;;5031661;28;20199;-62
2022/01/09 09:59:44;;;;;;;0.60;0.60;;;;;;;;;;5032001;28;20566;-62
2022/01/09 10:02:15;;;;;;;0.60;0.60;;;;;;;;;;5032785;28;20200;-61
2022/01/09 10:04:56;;;;;;;0.50;0.50;;;;;;;;;;5029245;28;20444;-62
2022/01/09 10:07:23;;;;;;;0.50;0.50;;;;;;;;;;5033994;28;20678;-62
2022/01/09 10:09:56;;;;;;;0.50;0.50;;;;;;;;;;5033319;28;20222;-63
2022/01/09 10:12:26;;;;;;;0.50;0.50;;;;;;;;;;5032497;28;20179;-60
2022/01/09 10:14:53;;;;;;;0.50;0.50;;;;;;;;;;5033175;28;20594;-62
2022/01/09 10:17:20;;;;;;;0.55;0.55;;;;;;;;;;5033085;28;20670;-63
2022/01/09 10:19:46;;;;;;;0.68;0.68;;;;;;;;;;5033165;28;20175;-62
2022/01/09 10:22:25;;;;;;;0.63;0.63;;;;;;;;;;5033232;28;20206;-62
2022/01/09 10:24:51;;;;;;;0.70;0.70;;;;;;;;;;5029639;28;20426;-62
2022/01/09 10:27:27;;;;;;;0.50;0.50;;;;;;;;;;5032094;28;20196;-61
2022/01/09 10:29:55;;;;;;;0.70;0.70;;;;;;;;;;5031116;28;20417;-60
2022/01/09 10:32:24;;;;;;;0.50;0.50;;;;;;;;;;5012271;28;20718;-61
2022/01/09 10:35:05;;;;;;;0.50;0.50;;;;;;;;;;5030866;28;20178;-59
2022/01/09 10:37:32;;;;;;;0.60;0.60;;;;;;;;;;5030139;28;20223;-61
2022/01/09 10:40:00;;;;;;;0.50;0.50;;;;;;;;;;5032878;28;20231;-61
2022/01/09 10:42:25;;;;;;;0.60;0.60;;;;;;;;;;5012179;28;20340;-60
2022/01/09 10:44:51;;;;;;;0.60;0.60;;;;;;;;;;5031463;28;20254;-62
2022/01/09 10:47:17;;;;;;;0.60;0.60;;;;;;;;;;5031336;28;20426;-62
2022/01/09 10:49:52;;;;;;;0.60;0.60;;;;;;;;;;5031424;28;20468;-61
2022/01/09 10:52:19;;;;;;;0.50;0.50;;;;;;;;;;5031464;28;20467;-61
2022/01/09 10:54:46;;;;;;;0.50;0.50;;;;;;;;;;5031162;28;20175;-62
2022/01/09 10:57:15;;;;;;;0.50;0.50;;;;;;;;;;5012979;28;20571;-62
2022/01/09 10:59:42;;;;;;;0.60;0.60;;;;;;;;;;5031736;28;20188;-62
2022/01/09 11:02:10;;;;;;;0.50;0.50;;;;;;;;;;5031947;28;20202;-60
2022/01/09 11:04:36;;;;;;;0.50;0.50;;;;;;;;;;5031601;28;20550;-61
2022/01/09 11:07:02;;;;;;;0.50;0.50;;;;;;;;;;5031562;28;20218;-61
2022/01/09 11:09:30;;;;;;;0.50;0.50;;;;;;;;;;5031715;28;20796;-60
2022/01/09 11:11:56;;;;;;;0.60;0.60;;;;;;;;;;5031816;28;20171;-63
2022/01/09 11:14:23;;;;;;;0.70;0.70;;;;;;;;;;5013625;28;20179;-62
2022/01/09 11:16:51;;;;;;;0.60;0.60;;;;;;;;;;5028973;28;20290;-62
2022/01/09 11:19:26;;;;;;;0.60;0.60;;;;;;;;;;5031551;28;20172;-62
2022/01/09 11:21:59;;;;;;;0.50;0.50;;;;;;;;;;5029449;28;20203;-62
2022/01/09 11:24:25;;;;;;;0.60;0.60;;;;;;;;;;5028831;28;20219;-60
2022/01/09 11:26:52;;;;;;;0.50;0.50;;;;;;;;;;5032356;28;20694;-61
2022/01/09 11:29:23;;;;;;;0.50;0.50;;;;;;;;;;5013016;28;20422;-62
2022/01/09 11:32:00;;;;;;;0.50;0.50;;;;;;;;;;5028249;28;20551;-63
2022/01/09 11:34:38;;;;;;;0.70;0.70;;;;;;;;;;5030500;28;20779;-62
2022/01/09 11:37:13;;;;;;;0.50;0.50;;;;;;;;;;5029963;28;20735;-62
2022/01/09 11:39:43;;;;;;;0.52;0.52;;;;;;;;;;5033948;28;20248;-62
2022/01/09 11:42:10;;;;;;;0.50;0.50;;;;;;;;;;5033529;28;20210;-62
2022/01/09 11:44:50;;;;;;;0.60;0.60;;;;;;;;;;5030953;28;20656;-63
2022/01/09 11:47:16;;;;;;;0.50;0.50;;;;;;;;;;5031367;28;20221;-62
2022/01/09 11:49:54;;;;;;;0.60;0.60;;;;;;;;;;5031480;28;20176;-62
2022/01/09 11:52:27;;;;;;;0.40;0.40;;;;;;;;;;5013042;28;20423;-62
2022/01/09 11:55:06;;;;;;;0.50;0.50;;;;;;;;;;5031955;28;20184;-62
2022/01/09 11:57:49;;;;;;;0.50;0.50;;;;;;;;;;5031554;28;20278;-62
2022/01/09 12:00:29;;;;;;;0.50;0.50;;;;;;;;;;5030184;28;20186;-62
2022/01/09 12:02:54;;;;;;;0.50;0.50;;;;;;;;;;5027290;28;20225;-62
2022/01/09 12:05:20;;;;;;;0.60;0.60;;;;;;;;;;5030610;28;20647;-60
2022/01/09 12:07:48;;;;;;;0.60;0.60;;;;;;;;;;5030902;28;20468;-62
2022/01/09 12:10:22;;;;;;;0.60;0.60;;;;;;;;;;5052379;22;20489;-64
2022/01/09 12:12:49;;;;;;;0.50;0.50;;;;;;;;;;5026631;28;20254;-64
2022/01/09 12:15:32;;;;;;;0.50;0.50;;;;;;;;;;5029997;28;20180;-64
2022/01/09 12:18:00;;;;;;;0.60;0.60;;;;;;;;;;5029672;28;20183;-64
2022/01/09 12:20:28;;;;;;;0.60;0.60;;;;;;;;;;5028280;28;20224;-64
2022/01/09 12:23:04;;;;;;;0.50;0.50;;;;;;;;;;5030509;28;20189;-65
2022/01/09 12:25:36;;;;;;;0.57;0.57;;;;;;;;;;5010661;28;20271;-65
2022/01/09 12:28:06;;;;;;;0.50;0.50;;;;;;;;;;5030573;28;20183;-65
2022/01/09 12:33:10;;;;;;;0.50;0.50;;;;;;;;;;5030594;28;20651;-64
2022/01/09 12:35:43;;;;;;;0.50;0.50;;;;;;;;;;5031356;28;20177;-64
2022/01/09 12:38:19;;;;;;;0.50;0.50;;;;;;;;;;5014507;28;20599;-65
2022/01/09 12:40:46;;;;;;;0.60;0.60;;;;;;;;;;5011129;28;20578;-65
2022/01/09 12:43:12;;;;;;;0.60;0.60;;;;;;;;;;5016333;28;20195;-65
2022/01/09 12:45:43;;;;;;;0.50;0.50;;;;;;;;;;5034461;28;20700;-65
2022/01/09 12:48:17;;;;;;;0.60;0.60;;;;;;;;;;5032389;28;20178;-65
2022/01/09 12:50:43;;;;;;;0.57;0.57;;;;;;;;;;5034175;28;20193;-65
2022/01/09 12:53:12;;;;;;;0.50;0.50;;;;;;;;;;5034198;28;20217;-65
2022/01/09 12:55:54;;;;;;;0.60;0.60;;;;;;;;;;5034270;28;20271;-65
2022/01/09 12:58:33;;;;;;;0.50;0.50;;;;;;;;;;5015673;28;20188;-65
2022/01/09 13:01:01;;;;;;;0.60;0.60;;;;;;;;;;5034104;28;21481;-65
2022/01/09 13:03:30;;;;;;;0.60;0.60;;;;;;;;;;5031387;28;20206;-65
2022/01/09 13:05:57;;;;;;;0.50;0.50;;;;;;;;;;5034133;28;20172;-65
2022/01/09 13:08:23;;;;;;;0.50;0.50;;;;;;;;;;5033858;28;20639;-65
2022/01/09 13:11:00;;;;;;;0.50;0.50;;;;;;;;;;5033887;28;20221;-65
2022/01/09 13:13:26;;;;;;;0.50;0.50;;;;;;;;;;5031131;28;20425;-65
2022/01/09 13:15:53;;;;;;;0.50;0.50;;;;;;;;;;5034076;28;20191;-65
2022/01/09 13:18:34;;;;;;;0.50;0.50;;;;;;;;;;5034053;28;20183;-65
2022/01/09 13:21:14;;;;;;;0.50;0.50;;;;;;;;;;5033464;28;20198;-65
2022/01/09 13:23:59;;;;;;;0.50;0.50;;;;;;;;;;5032088;28;20206;-65
2022/01/09 13:26:25;;;;;;;0.52;0.52;;;;;;;;;;5015994;28;20183;-65
2022/01/09 13:28:52;;;;;;;0.50;0.50;;;;;;;;;;5032981;28;20198;-65
2022/01/09 13:31:19;;;;;;;0.60;0.60;;;;;;;;;;5033852;28;20171;-65
2022/01/09 13:33:56;;;;;;;0.60;0.60;;;;;;;;;;5033154;28;20203;-65
2022/01/09 13:36:30;;;;;;;0.50;0.50;;;;;;;;;;5033756;28;20178;-65
2022/01/09 13:38:57;;;;;;;0.50;0.50;;;;;;;;;;5016399;28;20183;-65
2022/01/09 13:41:23;;;;;;;0.50;0.50;;;;;;;;;;5033739;28;20527;-65
2022/01/09 13:43:49;;;;;;;0.60;0.60;;;;;;;;;;5033648;28;20212;-65
2022/01/09 13:46:16;;;;;;;0.57;0.57;;;;;;;;;;5033732;28;20187;-65
2022/01/09 13:48:46;;;;;;;0.60;0.60;;;;;;;;;;5034566;28;20180;-65
2022/01/09 13:51:12;;;;;;;0.60;0.60;;;;;;;;;;5033413;28;20176;-65
2022/01/09 13:53:38;;;;;;;0.50;0.50;;;;;;;;;;5011966;28;20193;-65
2022/01/09 13:56:05;;;;;;;0.60;0.60;;;;;;;;;;5032408;28;20430;-65
2022/01/09 13:58:31;;;;;;;0.60;0.60;;;;;;;;;;5033187;28;20462;-65
2022/01/09 14:00:57;;;;;;;0.60;0.60;;;;;;;;;;5032078;28;20232;-65
2022/01/09 14:03:28;;;;;;;0.60;0.60;;;;;;;;;;5026591;28;20459;-65
2022/01/09 14:05:54;;;;;;;0.50;0.50;;;;;;;;;;5030573;28;20175;-65
2022/01/09 14:08:21;;;;;;;0.50;0.50;;;;;;;;;;5030756;28;20213;-66
2022/01/09 14:10:47;;;;;;;0.60;0.60;;;;;;;;;;5027551;28;20244;-65
2022/01/09 14:13:14;;;;;;;0.50;0.50;;;;;;;;;;5030363;28;20642;-65
2022/01/09 14:15:40;;;;;;;0.50;0.50;;;;;;;;;;5029781;28;20544;-65
2022/01/09 14:18:06;;;;;;;0.50;0.50;;;;;;;;;;5030821;28;20258;-66
2022/01/09 14:20:32;;;;;;;0.60;0.60;;;;;;;;;;5030353;28;20270;-65
2022/01/09 14:23:11;;;;;;;0.40;0.40;;;;;;;;;;5032550;28;20254;-65
2022/01/09 14:25:39;;;;;;;0.60;0.60;;;;;;;;;;5013228;28;20407;-65
2022/01/09 14:28:09;;;;;;;0.50;0.50;;;;;;;;;;5013577;28;20187;-65
2022/01/09 14:30:35;;;;;;;0.60;0.60;;;;;;;;;;5017604;28;20196;-65
2022/01/09 14:33:08;;;;;;;0.60;0.60;;;;;;;;;;5012983;28;20182;-65
2022/01/09 14:35:36;;;;;;;0.57;0.57;;;;;;;;;;5014524;28;20231;-65
2022/01/09 14:38:02;;;;;;;0.50;0.50;;;;;;;;;;5032930;28;20188;-65
2022/01/09 14:40:29;;;;;;;0.50;0.50;;;;;;;;;;5030259;28;20294;-65
2022/01/09 14:42:55;;;;;;;0.60;0.60;;;;;;;;;;5029516;28;20638;-64
2022/01/09 14:45:21;;;;;;;0.50;0.50;;;;;;;;;;5029678;28;20692;-65
2022/01/09 14:47:48;;;;;;;0.50;0.50;;;;;;;;;;5014963;28;20663;-65
2022/01/09 14:50:15;;;;;;;0.50;0.50;;;;;;;;;;5028227;28;20203;-65